sensor_id;sensor_type;location;lat;lon;timestamp;pressure;altitude;pressure_sealevel;temperature;humidity
77631;BME280;66798;47.370;8.552;2023-06-10T05:12:34;96319.94;;;20.68;48.47
77631;BME280;66798;47.370;8.552;2023-06-10T05:15:00;96320.28;;;20.79;47.74
77631;BME280;66798;47.370;8.552;2023-06-10T05:17:26;96317.69;;;20.83;47.78
77631;BME280;66798;47.370;8.552;2023-06-10T05:19:52;96322.72;;;21.28;47.12
77631;BME280;66798;47.370;8.552;2023-06-10T05:22:18;96328.66;;;21.50;46.31
77631;BME280;66798;47.370;8.552;2023-06-10T05:24:44;96323.94;;;21.31;46.44
77631;BME280;66798;47.370;8.552;2023-06-10T05:27:10;96321.75;;;21.49;46.83
77631;BME280;66798;47.370;8.552;2023-06-10T05:29:36;96326.66;;;21.47;46.31
77631;BME280;66798;47.370;8.552;2023-06-10T05:32:01;96323.22;;;22.10;45.72
77631;BME280;66798;47.370;8.552;2023-06-10T05:34:31;96332.75;;;22.42;44.46
77631;BME280;66798;47.370;8.552;2023-06-10T05:36:56;96333.59;;;22.82;43.36
77631;BME280;66798;47.370;8.552;2023-06-10T05:39:22;96337.13;;;23.25;42.81
77631;BME280;66798;47.370;8.552;2023-06-10T05:41:48;96340.81;;;23.59;41.56
77631;BME280;66798;47.370;8.552;2023-06-10T05:44:13;96342.97;;;23.30;41.87
77631;BME280;66798;47.370;8.552;2023-06-10T05:46:38;96336.53;;;23.35;42.37
77631;BME280;66798;47.370;8.552;2023-06-10T05:49:04;96339.25;;;24.04;41.30
77631;BME280;66798;47.370;8.552;2023-06-10T05:51:29;96337.94;;;24.44;40.12
77631;BME280;66798;47.370;8.552;2023-06-10T05:53:55;96335.91;;;24.64;40.19
77631;BME280;66798;47.370;8.552;2023-06-10T05:56:20;96343.00;;;25.10;39.58
77631;BME280;66798;47.370;8.552;2023-06-10T05:58:49;96340.63;;;24.71;39.21
77631;BME280;66798;47.370;8.552;2023-06-10T06:01:14;96335.59;;;24.99;38.85
77631;BME280;66798;47.370;8.552;2023-06-10T06:03:40;96337.56;;;24.72;38.86
77631;BME280;66798;47.370;8.552;2023-06-10T06:06:06;96341.38;;;25.35;38.77
77631;BME280;66798;47.370;8.552;2023-06-10T06:08:32;96340.22;;;25.33;38.15
77631;BME280;66798;47.370;8.552;2023-06-10T06:10:57;96347.59;;;25.43;38.20
77631;BME280;66798;47.370;8.552;2023-06-10T06:13:23;96337.78;;;25.58;38.41
77631;BME280;66798;47.370;8.552;2023-06-10T06:15:49;96342.50;;;25.72;37.60
77631;BME280;66798;47.370;8.552;2023-06-10T06:18:15;96336.97;;;25.57;37.42
77631;BME280;66798;47.370;8.552;2023-06-10T06:20:40;96334.25;;;25.91;37.39
77631;BME280;66798;47.370;8.552;2023-06-10T06:23:06;96343.03;;;26.36;36.42
77631;BME280;66798;47.370;8.552;2023-06-10T06:25:33;96339.50;;;25.06;38.31
77631;BME280;66798;47.370;8.552;2023-06-10T06:28:01;96334.72;;;25.22;38.16
77631;BME280;66798;47.370;8.552;2023-06-10T06:30:26;96336.22;;;25.19;38.32
77631;BME280;66798;47.370;8.552;2023-06-10T06:32:51;96336.38;;;25.75;37.87
77631;BME280;66798;47.370;8.552;2023-06-10T06:35:17;96341.00;;;25.74;37.32
77631;BME280;66798;47.370;8.552;2023-06-10T06:37:42;96333.59;;;26.09;36.86
77631;BME280;66798;47.370;8.552;2023-06-10T06:40:08;96335.31;;;26.35;37.01
77631;BME280;66798;47.370;8.552;2023-06-10T06:42:34;96330.69;;;26.35;36.60
77631;BME280;66798;47.370;8.552;2023-06-10T06:44:59;96334.75;;;26.74;36.15
77631;BME280;66798;47.370;8.552;2023-06-10T06:47:24;96328.22;;;26.78;36.20
77631;BME280;66798;47.370;8.552;2023-06-10T06:49:51;96331.50;;;27.23;35.48
77631;BME280;66798;47.370;8.552;2023-06-10T06:52:17;96326.16;;;27.52;34.70
77631;BME280;66798;47.370;8.552;2023-06-10T06:54:42;96329.31;;;27.97;34.19
77631;BME280;66798;47.370;8.552;2023-06-10T06:57:08;96324.63;;;28.37;33.90
77631;BME280;66798;47.370;8.552;2023-06-10T06:59:33;96331.13;;;28.68;33.49
77631;BME280;66798;47.370;8.552;2023-06-10T07:01:59;96333.88;;;28.40;32.96
77631;BME280;66798;47.370;8.552;2023-06-10T07:04:25;96328.50;;;28.32;33.75
77631;BME280;66798;47.370;8.552;2023-06-10T07:06:50;96331.59;;;28.20;33.22
77631;BME280;66798;47.370;8.552;2023-06-10T07:09:15;96337.34;;;27.40;34.68
77631;BME280;66798;47.370;8.552;2023-06-10T07:11:41;96342.72;;;27.32;34.83
77631;BME280;66798;47.370;8.552;2023-06-10T07:14:07;96339.28;;;27.53;34.59
77631;BME280;66798;47.370;8.552;2023-06-10T07:16:32;96335.22;;;26.90;35.33
77631;BME280;66798;47.370;8.552;2023-06-10T07:18:58;96336.97;;;27.41;34.65
77631;BME280;66798;47.370;8.552;2023-06-10T07:21:24;96332.38;;;27.88;34.85
77631;BME280;66798;47.370;8.552;2023-06-10T07:23:49;96331.97;;;27.75;34.38
77631;BME280;66798;47.370;8.552;2023-06-10T07:26:17;96336.19;;;27.51;34.49
77631;BME280;66798;47.370;8.552;2023-06-10T07:28:43;96337.41;;;27.83;35.01
77631;BME280;66798;47.370;8.552;2023-06-10T07:31:08;96340.84;;;28.44;33.28
77631;BME280;66798;47.370;8.552;2023-06-10T07:33:34;96342.00;;;28.50;33.17
77631;BME280;66798;47.370;8.552;2023-06-10T07:35:59;96340.03;;;28.72;33.14
77631;BME280;66798;47.370;8.552;2023-06-10T07:38:26;96340.84;;;28.48;32.46
77631;BME280;66798;47.370;8.552;2023-06-10T07:40:51;96340.31;;;28.92;32.09
77631;BME280;66798;47.370;8.552;2023-06-10T07:43:17;96338.72;;;29.06;32.57
77631;BME280;66798;47.370;8.552;2023-06-10T07:45:43;96341.97;;;28.65;32.25
77631;BME280;66798;47.370;8.552;2023-06-10T07:48:09;96340.34;;;28.85;32.68
77631;BME280;66798;47.370;8.552;2023-06-10T07:50:34;96335.38;;;28.73;31.92
77631;BME280;66798;47.370;8.552;2023-06-10T07:53:00;96334.38;;;29.26;32.35
77631;BME280;66798;47.370;8.552;2023-06-10T07:55:26;96334.72;;;29.95;31.38
77631;BME280;66798;47.370;8.552;2023-06-10T07:57:52;96339.56;;;30.59;30.77
77631;BME280;66798;47.370;8.552;2023-06-10T08:00:18;96335.38;;;30.89;29.36
77631;BME280;66798;47.370;8.552;2023-06-10T08:02:43;96336.78;;;30.25;29.85
77631;BME280;66798;47.370;8.552;2023-06-10T08:05:09;96336.78;;;29.10;31.54
77631;BME280;66798;47.370;8.552;2023-06-10T08:07:35;96339.34;;;29.38;31.83
77631;BME280;66798;47.370;8.552;2023-06-10T08:10:01;96349.59;;;28.95;31.60
77631;BME280;66798;47.370;8.552;2023-06-10T08:12:27;96341.91;;;28.79;32.57
77631;BME280;66798;47.370;8.552;2023-06-10T08:14:52;96338.78;;;29.65;31.57
77631;BME280;66798;47.370;8.552;2023-06-10T08:17:19;96340.34;;;30.15;30.08
77631;BME280;66798;47.370;8.552;2023-06-10T08:19:44;96336.50;;;30.12;29.80
77631;BME280;66798;47.370;8.552;2023-06-10T08:22:10;96333.47;;;30.06;30.58
77631;BME280;66798;47.370;8.552;2023-06-10T08:24:35;96339.25;;;29.53;30.83
77631;BME280;66798;47.370;8.552;2023-06-10T08:27:01;96336.25;;;27.84;33.21
77631;BME280;66798;47.370;8.552;2023-06-10T08:29:26;96334.28;;;28.38;33.18
77631;BME280;66798;47.370;8.552;2023-06-10T08:31:52;96330.81;;;28.23;32.88
77631;BME280;66798;47.370;8.552;2023-06-10T08:34:17;96334.69;;;28.29;32.93
77631;BME280;66798;47.370;8.552;2023-06-10T08:36:43;96333.19;;;27.89;33.00
77631;BME280;66798;47.370;8.552;2023-06-10T08:39:09;96337.75;;;28.56;33.24
77631;BME280;66798;47.370;8.552;2023-06-10T08:41:41;96341.59;;;28.34;32.72
77631;BME280;66798;47.370;8.552;2023-06-10T08:44:17;96325.34;;;28.63;32.23
77631;BME280;66798;47.370;8.552;2023-06-10T08:46:47;96327.53;;;29.00;32.08
77631;BME280;66798;47.370;8.552;2023-06-10T08:49:22;96328.34;;;29.63;31.32
77631;BME280;66798;47.370;8.552;2023-06-10T08:51:50;96318.25;;;29.75;31.53
77631;BME280;66798;47.370;8.552;2023-06-10T08:54:21;96324.19;;;30.04;30.54
77631;BME280;66798;47.370;8.552;2023-06-10T08:56:49;96326.00;;;30.59;30.76
77631;BME280;66798;47.370;8.552;2023-06-10T08:59:17;96332.09;;;30.33;30.66
77631;BME280;66798;47.370;8.552;2023-06-10T09:01:44;96322.69;;;31.09;29.77
77631;BME280;66798;47.370;8.552;2023-06-10T09:04:10;96320.34;;;31.39;29.00
77631;BME280;66798;47.370;8.552;2023-06-10T09:06:37;96322.06;;;30.98;29.16
77631;BME280;66798;47.370;8.552;2023-06-10T09:09:05;96316.81;;;31.45;28.94
77631;BME280;66798;47.370;8.552;2023-06-10T09:11:31;96313.41;;;31.65;29.16
77631;BME280;66798;47.370;8.552;2023-06-10T09:13:57;96304.41;;;31.44;28.71
77631;BME280;66798;47.370;8.552;2023-06-10T09:16:24;96315.03;;;31.31;29.12
77631;BME280;66798;47.370;8.552;2023-06-10T09:18:50;96316.59;;;31.02;29.83
77631;BME280;66798;47.370;8.552;2023-06-10T09:21:22;96315.25;;;30.83;29.98
77631;BME280;66798;47.370;8.552;2023-06-10T09:23:48;96324.75;;;30.30;29.90
77631;BME280;66798;47.370;8.552;2023-06-10T09:26:13;96320.03;;;30.37;30.79
77631;BME280;66798;47.370;8.552;2023-06-10T09:28:39;96316.88;;;30.77;30.26
77631;BME280;66798;47.370;8.552;2023-06-10T09:31:07;96308.47;;;30.30;29.88
77631;BME280;66798;47.370;8.552;2023-06-10T09:33:36;96316.66;;;30.26;29.66
77631;BME280;66798;47.370;8.552;2023-06-10T09:36:03;96311.72;;;30.10;29.85
77631;BME280;66798;47.370;8.552;2023-06-10T09:38:32;96318.22;;;30.61;29.76
77631;BME280;66798;47.370;8.552;2023-06-10T09:40:59;96322.94;;;30.12;29.91
77631;BME280;66798;47.370;8.552;2023-06-10T09:43:43;96321.94;;;29.39;30.86
77631;BME280;66798;47.370;8.552;2023-06-10T09:46:16;96318.56;;;29.21;30.73
77631;BME280;66798;47.370;8.552;2023-06-10T09:48:43;96312.41;;;29.02;31.24
77631;BME280;66798;47.370;8.552;2023-06-10T09:51:09;96303.94;;;29.71;30.77
77631;BME280;66798;47.370;8.552;2023-06-10T09:53:37;96311.13;;;30.37;30.36
77631;BME280;66798;47.370;8.552;2023-06-10T09:56:02;96300.38;;;30.95;29.44
77631;BME280;66798;47.370;8.552;2023-06-10T09:58:36;96305.88;;;31.49;28.21
77631;BME280;66798;47.370;8.552;2023-06-10T10:01:08;96304.31;;;31.99;28.58
77631;BME280;66798;47.370;8.552;2023-06-10T10:03:51;96300.78;;;32.02;28.05
77631;BME280;66798;47.370;8.552;2023-06-10T10:06:19;96309.59;;;32.09;28.61
77631;BME280;66798;47.370;8.552;2023-06-10T10:08:47;96304.19;;;32.29;28.08
77631;BME280;66798;47.370;8.552;2023-06-10T10:11:16;96313.78;;;32.14;28.10
77631;BME280;66798;47.370;8.552;2023-06-10T10:13:45;96296.56;;;30.88;28.19
77631;BME280;66798;47.370;8.552;2023-06-10T10:16:21;96298.22;;;31.13;28.81
77631;BME280;66798;47.370;8.552;2023-06-10T10:18:55;96291.81;;;30.96;28.44
77631;BME280;66798;47.370;8.552;2023-06-10T10:21:26;96294.84;;;31.32;27.97
77631;BME280;66798;47.370;8.552;2023-06-10T10:24:15;96298.59;;;31.42;28.17
77631;BME280;66798;47.370;8.552;2023-06-10T10:26:41;96295.63;;;31.02;28.52
77631;BME280;66798;47.370;8.552;2023-06-10T10:29:14;96292.34;;;31.69;28.83
77631;BME280;66798;47.370;8.552;2023-06-10T10:31:42;96293.31;;;32.06;28.56
77631;BME280;66798;47.370;8.552;2023-06-10T10:34:21;96294.31;;;31.92;28.23
77631;BME280;66798;47.370;8.552;2023-06-10T10:36:50;96297.72;;;31.49;28.97
77631;BME280;66798;47.370;8.552;2023-06-10T10:39:16;96296.53;;;31.50;28.43
77631;BME280;66798;47.370;8.552;2023-06-10T10:41:44;96296.50;;;31.77;28.87
77631;BME280;66798;47.370;8.552;2023-06-10T10:44:10;96285.91;;;31.83;28.36
77631;BME280;66798;47.370;8.552;2023-06-10T10:46:44;96285.78;;;31.66;28.72
77631;BME280;66798;47.370;8.552;2023-06-10T10:49:12;96292.28;;;30.91;29.84
77631;BME280;66798;47.370;8.552;2023-06-10T10:51:54;96279.41;;;29.85;31.18
77631;BME280;66798;47.370;8.552;2023-06-10T10:54:28;96283.34;;;30.18;31.62
77631;BME280;66798;47.370;8.552;2023-06-10T10:57:16;96269.25;;;30.34;31.55
77631;BME280;66798;47.370;8.552;2023-06-10T10:59:53;96268.28;;;30.86;30.54
77631;BME280;66798;47.370;8.552;2023-06-10T11:02:45;96267.34;;;31.00;30.01
77631;BME280;66798;47.370;8.552;2023-06-10T11:05:15;96270.50;;;31.22;30.53
77631;BME280;66798;47.370;8.552;2023-06-10T11:07:52;96272.97;;;31.67;29.82
77631;BME280;66798;47.370;8.552;2023-06-10T11:10:39;96272.38;;;31.79;29.46
77631;BME280;66798;47.370;8.552;2023-06-10T11:13:15;96261.81;;;31.07;29.40
77631;BME280;66798;47.370;8.552;2023-06-10T11:18:29;96261.59;;;29.84;30.26
77631;BME280;66798;47.370;8.552;2023-06-10T11:21:04;96268.00;;;30.04;30.35
77631;BME280;66798;47.370;8.552;2023-06-10T11:34:02;96265.88;;;30.23;30.32
77631;BME280;66798;47.370;8.552;2023-06-10T11:36:30;96265.50;;;30.21;30.86
77631;BME280;66798;47.370;8.552;2023-06-10T11:39:01;96256.69;;;30.10;30.82
77631;BME280;66798;47.370;8.552;2023-06-10T11:41:30;96266.22;;;30.29;30.63
77631;BME280;66798;47.370;8.552;2023-06-10T11:44:00;96269.66;;;29.91;30.66
77631;BME280;66798;47.370;8.552;2023-06-10T11:46:26;96254.59;;;29.87;30.56
77631;BME280;66798;47.370;8.552;2023-06-10T11:48:59;96251.00;;;29.52;31.31
77631;BME280;66798;47.370;8.552;2023-06-10T11:51:27;96260.22;;;28.98;31.92
77631;BME280;66798;47.370;8.552;2023-06-10T11:53:53;96250.78;;;29.25;32.12
77631;BME280;66798;47.370;8.552;2023-06-10T11:56:24;96247.16;;;29.49;32.31
77631;BME280;66798;47.370;8.552;2023-06-10T11:58:59;96250.19;;;30.03;31.54
77631;BME280;66798;47.370;8.552;2023-06-10T12:01:30;96242.28;;;30.54;31.19
77631;BME280;66798;47.370;8.552;2023-06-10T12:06:23;96245.97;;;29.99;30.86
77631;BME280;66798;47.370;8.552;2023-06-10T12:08:49;96238.75;;;30.23;30.68
77631;BME280;66798;47.370;8.552;2023-06-10T12:11:14;96240.03;;;30.11;30.01
77631;BME280;66798;47.370;8.552;2023-06-10T12:13:49;96246.19;;;29.74;31.34
77631;BME280;66798;47.370;8.552;2023-06-10T12:16:15;96247.69;;;29.26;32.27
77631;BME280;66798;47.370;8.552;2023-06-10T12:18:43;96245.75;;;28.38;33.38
77631;BME280;66798;47.370;8.552;2023-06-10T12:21:22;96239.97;;;28.47;33.66
77631;BME280;66798;47.370;8.552;2023-06-10T12:26:54;96227.25;;;29.18;33.16
77631;BME280;66798;47.370;8.552;2023-06-10T12:29:23;96225.34;;;29.63;32.43
77631;BME280;66798;47.370;8.552;2023-06-10T12:32:01;96230.63;;;29.81;31.59
77631;BME280;66798;47.370;8.552;2023-06-10T12:34:39;96229.31;;;29.48;31.25
77631;BME280;66798;47.370;8.552;2023-06-10T12:37:12;96231.38;;;29.37;31.37
77631;BME280;66798;47.370;8.552;2023-06-10T12:39:41;96216.25;;;29.36;30.97
77631;BME280;66798;47.370;8.552;2023-06-10T12:42:08;96226.00;;;29.30;31.30
77631;BME280;66798;47.370;8.552;2023-06-10T12:44:39;96229.53;;;29.19;32.04
77631;BME280;66798;47.370;8.552;2023-06-10T12:47:08;96226.28;;;28.76;31.73
77631;BME280;66798;47.370;8.552;2023-06-10T12:49:35;96230.75;;;28.12;32.57
77631;BME280;66798;47.370;8.552;2023-06-10T12:52:01;96220.66;;;28.31;32.44
77631;BME280;66798;47.370;8.552;2023-06-10T12:54:26;96214.44;;;28.45;32.59
77631;BME280;66798;47.370;8.552;2023-06-10T12:56:52;96221.06;;;28.26;32.45
77631;BME280;66798;47.370;8.552;2023-06-10T12:59:18;96220.22;;;28.54;32.16
77631;BME280;66798;47.370;8.552;2023-06-10T13:01:50;96215.47;;;28.76;32.14
77631;BME280;66798;47.370;8.552;2023-06-10T13:04:16;96211.66;;;28.63;31.32
77631;BME280;66798;47.370;8.552;2023-06-10T13:06:42;96210.56;;;28.46;32.00
77631;BME280;66798;47.370;8.552;2023-06-10T13:09:08;96201.28;;;28.50;32.04
77631;BME280;66798;47.370;8.552;2023-06-10T13:11:34;96205.19;;;28.31;31.51
77631;BME280;66798;47.370;8.552;2023-06-10T13:14:00;96197.56;;;28.08;32.12
77631;BME280;66798;47.370;8.552;2023-06-10T13:16:27;96197.44;;;28.48;32.71
77631;BME280;66798;47.370;8.552;2023-06-10T13:18:53;96199.69;;;28.64;31.50
77631;BME280;66798;47.370;8.552;2023-06-10T13:21:19;96189.56;;;28.75;31.33
77631;BME280;66798;47.370;8.552;2023-06-10T13:23:45;96195.50;;;28.52;31.05
77631;BME280;66798;47.370;8.552;2023-06-10T13:26:14;96194.03;;;28.29;31.44
77631;BME280;66798;47.370;8.552;2023-06-10T13:28:42;96182.41;;;28.29;31.44
77631;BME280;66798;47.370;8.552;2023-06-10T13:31:08;96181.59;;;28.43;31.44
77631;BME280;66798;47.370;8.552;2023-06-10T13:33:33;96179.63;;;28.43;31.01
77631;BME280;66798;47.370;8.552;2023-06-10T13:35:59;96180.81;;;28.38;31.60
77631;BME280;66798;47.370;8.552;2023-06-10T13:38:24;96174.63;;;28.49;31.42
77631;BME280;66798;47.370;8.552;2023-06-10T13:40:49;96182.75;;;28.42;31.49
77631;BME280;66798;47.370;8.552;2023-06-10T13:43:16;96182.84;;;28.16;31.55
77631;BME280;66798;47.370;8.552;2023-06-10T13:45:42;96187.94;;;27.82;31.98
77631;BME280;66798;47.370;8.552;2023-06-10T13:48:07;96175.22;;;27.68;32.45
77631;BME280;66798;47.370;8.552;2023-06-10T13:50:33;96168.56;;;28.05;31.84
77631;BME280;66798;47.370;8.552;2023-06-10T13:52:59;96166.59;;;28.24;32.07
77631;BME280;66798;47.370;8.552;2023-06-10T13:55:25;96178.50;;;28.44;31.44
77631;BME280;66798;47.370;8.552;2023-06-10T13:57:50;96175.06;;;28.33;30.71
77631;BME280;66798;47.370;8.552;2023-06-10T14:00:16;96171.97;;;28.31;30.96
77631;BME280;66798;47.370;8.552;2023-06-10T14:02:42;96168.38;;;28.59;31.67
77631;BME280;66798;47.370;8.552;2023-06-10T14:05:07;96157.22;;;28.43;31.35
77631;BME280;66798;47.370;8.552;2023-06-10T14:07:34;96156.34;;;28.67;31.99
77631;BME280;66798;47.370;8.552;2023-06-10T14:09:59;96156.34;;;28.71;31.75
77631;BME280;66798;47.370;8.552;2023-06-10T14:12:25;96160.56;;;28.72;31.15
77631;BME280;66798;47.370;8.552;2023-06-10T14:14:50;96156.59;;;28.91;31.03
77631;BME280;66798;47.370;8.552;2023-06-10T14:17:16;96152.81;;;28.77;31.39
77631;BME280;66798;47.370;8.552;2023-06-10T14:19:41;96157.13;;;28.64;30.50
77631;BME280;66798;47.370;8.552;2023-06-10T14:22:07;96166.50;;;28.49;30.57
77631;BME280;66798;47.370;8.552;2023-06-10T14:24:33;96157.59;;;28.52;30.18
77631;BME280;66798;47.370;8.552;2023-06-10T14:27:00;96146.81;;;28.37;30.07
77631;BME280;66798;47.370;8.552;2023-06-10T14:29:25;96144.66;;;28.04;31.16
77631;BME280;66798;47.370;8.552;2023-06-10T14:31:54;96155.88;;;27.95;30.44
77631;BME280;66798;47.370;8.552;2023-06-10T14:34:20;96150.50;;;27.88;30.00
77631;BME280;66798;47.370;8.552;2023-06-10T14:36:45;96144.63;;;28.07;30.61
77631;BME280;66798;47.370;8.552;2023-06-10T14:39:11;96138.78;;;28.20;30.82
77631;BME280;66798;47.370;8.552;2023-06-10T14:41:36;96141.75;;;28.50;29.80
77631;BME280;66798;47.370;8.552;2023-06-10T14:44:02;96145.16;;;28.65;29.66
77631;BME280;66798;47.370;8.552;2023-06-10T14:46:27;96144.09;;;28.41;30.47
77631;BME280;66798;47.370;8.552;2023-06-10T14:48:53;96140.47;;;28.69;30.63
77631;BME280;66798;47.370;8.552;2023-06-10T14:51:18;96147.03;;;28.72;30.63
77631;BME280;66798;47.370;8.552;2023-06-10T14:53:45;96142.50;;;28.58;30.07
77631;BME280;66798;47.370;8.552;2023-06-10T14:56:10;96129.59;;;28.76;30.05
77631;BME280;66798;47.370;8.552;2023-06-10T14:58:36;96130.06;;;28.64;29.84
77631;BME280;66798;47.370;8.552;2023-06-10T15:01:02;96139.47;;;28.38;29.74
77631;BME280;66798;47.370;8.552;2023-06-10T15:03:28;96132.69;;;28.01;29.27
77631;BME280;66798;47.370;8.552;2023-06-10T15:05:53;96136.13;;;28.05;29.65
77631;BME280;66798;47.370;8.552;2023-06-10T15:08:18;96127.97;;;28.23;30.42
77631;BME280;66798;47.370;8.552;2023-06-10T15:10:44;96120.91;;;28.47;29.50
77631;BME280;66798;47.370;8.552;2023-06-10T15:13:09;96123.91;;;28.60;29.51
77631;BME280;66798;47.370;8.552;2023-06-10T15:15:35;96121.53;;;28.69;30.35
77631;BME280;66798;47.370;8.552;2023-06-10T15:18:00;96125.38;;;28.72;30.34
77631;BME280;66798;47.370;8.552;2023-06-10T15:20:26;96123.19;;;28.52;30.15
77631;BME280;66798;47.370;8.552;2023-06-10T15:22:51;96135.69;;;28.25;29.94
77631;BME280;66798;47.370;8.552;2023-06-10T15:25:18;96125.69;;;28.11;30.47
77631;BME280;66798;47.370;8.552;2023-06-10T15:27:44;96121.78;;;28.23;30.24
77631;BME280;66798;47.370;8.552;2023-06-10T15:30:10;96122.13;;;28.32;30.42
77631;BME280;66798;47.370;8.552;2023-06-10T15:32:35;96125.16;;;28.41;30.03
77631;BME280;66798;47.370;8.552;2023-06-10T15:35:01;96120.91;;;28.44;30.06
77631;BME280;66798;47.370;8.552;2023-06-10T15:37:26;96118.22;;;28.40;30.29
77631;BME280;66798;47.370;8.552;2023-06-10T15:39:52;96114.31;;;28.48;30.32
77631;BME280;66798;47.370;8.552;2023-06-10T15:42:17;96111.16;;;28.61;30.03
77631;BME280;66798;47.370;8.552;2023-06-10T15:44:43;96116.16;;;28.66;29.92
77631;BME280;66798;47.370;8.552;2023-06-10T15:47:08;96111.59;;;28.52;30.29
77631;BME280;66798;47.370;8.552;2023-06-10T15:49:34;96111.31;;;28.32;29.98
77631;BME280;66798;47.370;8.552;2023-06-10T15:51:59;96108.22;;;28.30;30.08
77631;BME280;66798;47.370;8.552;2023-06-10T15:54:25;96114.69;;;28.43;30.58
77631;BME280;66798;47.370;8.552;2023-06-10T15:56:51;96121.38;;;28.28;31.55
77631;BME280;66798;47.370;8.552;2023-06-10T15:59:16;96118.97;;;28.44;31.19
77631;BME280;66798;47.370;8.552;2023-06-10T16:01:41;96118.94;;;28.51;31.20
77631;BME280;66798;47.370;8.552;2023-06-10T16:04:07;96132.09;;;28.46;30.86
77631;BME280;66798;47.370;8.552;2023-06-10T16:06:33;96113.25;;;28.28;31.17
77631;BME280;66798;47.370;8.552;2023-06-10T16:08:59;96119.41;;;28.32;31.36
77631;BME280;66798;47.370;8.552;2023-06-10T16:11:25;96121.41;;;28.17;31.25
77631;BME280;66798;47.370;8.552;2023-06-10T16:13:51;96120.59;;;28.27;31.08
77631;BME280;66798;47.370;8.552;2023-06-10T16:16:16;96120.94;;;28.33;31.00
77631;BME280;66798;47.370;8.552;2023-06-10T16:18:42;96112.78;;;28.44;31.36
77631;BME280;66798;47.370;8.552;2023-06-10T16:21:07;96114.25;;;28.59;30.70
77631;BME280;66798;47.370;8.552;2023-06-10T16:23:33;96113.47;;;28.62;31.32
77631;BME280;66798;47.370;8.552;2023-06-10T16:25:58;96105.94;;;28.25;31.86
77631;BME280;66798;47.370;8.552;2023-06-10T16:28:23;96103.88;;;28.43;31.82
77631;BME280;66798;47.370;8.552;2023-06-10T16:30:49;96104.75;;;28.26;31.92
77631;BME280;66798;47.370;8.552;2023-06-10T16:33:15;96104.28;;;28.49;31.73
77631;BME280;66798;47.370;8.552;2023-06-10T16:35:41;96114.81;;;28.22;31.57
77631;BME280;66798;47.370;8.552;2023-06-10T16:38:07;96113.38;;;27.95;31.93
77631;BME280;66798;47.370;8.552;2023-06-10T16:40:32;96118.00;;;28.02;31.80
77631;BME280;66798;47.370;8.552;2023-06-10T16:42:58;96124.56;;;28.05;31.83
77631;BME280;66798;47.370;8.552;2023-06-10T16:45:23;96128.44;;;27.93;31.97
77631;BME280;66798;47.370;8.552;2023-06-10T16:47:49;96130.00;;;27.94;31.24
77631;BME280;66798;47.370;8.552;2023-06-10T16:50:14;96130.78;;;27.94;31.75
77631;BME280;66798;47.370;8.552;2023-06-10T16:52:40;96125.34;;;28.02;31.58
77631;BME280;66798;47.370;8.552;2023-06-10T16:55:05;96121.84;;;28.05;32.34
77631;BME280;66798;47.370;8.552;2023-06-10T16:57:31;96131.88;;;28.08;32.07
77631;BME280;66798;47.370;8.552;2023-06-10T16:59:57;96135.44;;;27.87;32.70
77631;BME280;66798;47.370;8.552;2023-06-10T17:02:22;96140.09;;;27.68;33.01
77631;BME280;66798;47.370;8.552;2023-06-10T17:04:48;96144.34;;;27.59;33.13
77631;BME280;66798;47.370;8.552;2023-06-10T17:07:13;96154.03;;;27.42;33.58
77631;BME280;66798;47.370;8.552;2023-06-10T17:09:39;96151.31;;;27.38;33.58
77631;BME280;66798;47.370;8.552;2023-06-10T17:12:05;96154.81;;;27.28;33.78
77631;BME280;66798;47.370;8.552;2023-06-10T17:14:31;96150.94;;;27.25;34.08
77631;BME280;66798;47.370;8.552;2023-06-10T17:16:56;96152.84;;;27.10;34.16
77631;BME280;66798;47.370;8.552;2023-06-10T17:19:23;96149.78;;;27.23;33.91
77631;BME280;66798;47.370;8.552;2023-06-10T17:21:49;96145.94;;;27.20;33.44
77631;BME280;66798;47.370;8.552;2023-06-10T17:24:14;96149.41;;;27.35;33.37
77631;BME280;66798;47.370;8.552;2023-06-10T17:26:40;96146.28;;;27.11;33.47
77631;BME280;66798;47.370;8.552;2023-06-10T17:29:05;96155.94;;;27.16;34.16
77631;BME280;66798;47.370;8.552;2023-06-10T17:31:31;96162.16;;;27.27;33.76
77631;BME280;66798;47.370;8.552;2023-06-10T17:33:56;96164.81;;;26.99;33.68
77631;BME280;66798;47.370;8.552;2023-06-10T17:36:21;96158.25;;;26.96;33.69
77631;BME280;66798;47.370;8.552;2023-06-10T17:38:47;96161.28;;;26.84;33.92
77631;BME280;66798;47.370;8.552;2023-06-10T17:41:12;96160.19;;;27.06;33.70
77631;BME280;66798;47.370;8.552;2023-06-10T17:43:38;96165.56;;;27.06;34.32
77631;BME280;66798;47.370;8.552;2023-06-10T17:46:03;96163.63;;;26.93;34.25
77631;BME280;66798;47.370;8.552;2023-06-10T17:48:29;96162.84;;;26.85;34.70
77631;BME280;66798;47.370;8.552;2023-06-10T17:50:54;96163.25;;;26.87;34.98
77631;BME280;66798;47.370;8.552;2023-06-10T17:53:20;96166.34;;;26.96;35.27
77631;BME280;66798;47.370;8.552;2023-06-10T17:55:46;96177.16;;;27.03;34.97
77631;BME280;66798;47.370;8.552;2023-06-10T17:58:11;96179.06;;;26.96;34.86
77631;BME280;66798;47.370;8.552;2023-06-10T18:00:37;96172.91;;;27.02;34.47
77631;BME280;66798;47.370;8.552;2023-06-10T18:03:02;96183.28;;;27.00;34.93
77631;BME280;66798;47.370;8.552;2023-06-10T18:05:28;96180.22;;;27.02;34.75
77631;BME280;66798;47.370;8.552;2023-06-10T18:07:53;96177.16;;;27.03;34.50
77631;BME280;66798;47.370;8.552;2023-06-10T18:10:19;96188.72;;;27.04;35.20
77631;BME280;66798;47.370;8.552;2023-06-10T18:12:45;96195.25;;;26.96;35.28
77631;BME280;66798;47.370;8.552;2023-06-10T18:15:10;96184.06;;;26.97;35.12
77631;BME280;66798;47.370;8.552;2023-06-10T18:17:36;96189.84;;;26.96;35.12
77631;BME280;66798;47.370;8.552;2023-06-10T18:20:02;96195.25;;;26.85;35.22
77631;BME280;66798;47.370;8.552;2023-06-10T18:22:28;96195.22;;;26.81;35.33
77631;BME280;66798;47.370;8.552;2023-06-10T18:24:53;96196.00;;;26.75;35.43
77631;BME280;66798;47.370;8.552;2023-06-10T18:27:19;96197.88;;;26.60;36.20
77631;BME280;66798;47.370;8.552;2023-06-10T18:29:44;96199.44;;;26.61;36.16